createdAt,value
2019-02-19T00:01:08.917Z,3.20
2019-02-19T00:03:39.787Z,3.20
2019-02-19T00:06:11.262Z,3.10
2019-02-19T00:08:41.058Z,3.10
2019-02-19T00:11:10.790Z,3.00
2019-02-19T00:13:40.425Z,3.00
2019-02-19T00:16:10.038Z,2.90
2019-02-19T00:18:39.669Z,2.90
2019-02-19T00:21:09.309Z,2.90
2019-02-19T00:23:38.963Z,2.80
2019-02-19T00:26:15.460Z,2.90
2019-02-19T00:28:45.125Z,2.80
2019-02-19T00:31:14.761Z,2.80
2019-02-19T00:33:44.379Z,2.80
2019-02-19T00:36:14.159Z,2.80
2019-02-19T00:38:43.801Z,2.80
2019-02-19T00:41:13.413Z,2.80
2019-02-19T00:43:43.048Z,2.80
2019-02-19T00:46:12.660Z,2.80
2019-02-19T00:48:42.296Z,2.70
2019-02-19T00:51:11.945Z,2.70
2019-02-19T00:53:41.572Z,2.60
2019-02-19T00:56:11.258Z,2.50
2019-02-19T00:58:41.299Z,2.40
2019-02-19T01:01:12.456Z,2.40
2019-02-19T01:03:42.216Z,2.30
2019-02-19T01:06:12.492Z,2.30
2019-02-19T01:08:42.117Z,2.20
2019-02-19T01:11:11.740Z,2.10
2019-02-19T01:13:41.348Z,2.10
2019-02-19T01:16:10.993Z,2.10
2019-02-19T01:18:40.640Z,2.10
2019-02-19T01:21:10.313Z,2.10
2019-02-19T01:23:39.925Z,2.00
2019-02-19T01:26:09.533Z,2.10
2019-02-19T01:28:39.181Z,2.10
2019-02-19T01:31:10.109Z,2.10
2019-02-19T01:33:39.750Z,2.10
2019-02-19T01:36:09.448Z,2.10
2019-02-19T01:38:39.138Z,2.00
2019-02-19T01:41:09.060Z,2.00
2019-02-19T01:43:38.910Z,2.00
2019-02-19T01:46:08.730Z,1.90
2019-02-19T01:48:38.564Z,1.90
2019-02-19T01:51:08.270Z,1.90
2019-02-19T01:53:37.961Z,1.80
2019-02-19T01:56:07.654Z,1.80
2019-02-19T01:58:37.376Z,1.80
2019-02-19T02:01:07.014Z,1.70
2019-02-19T02:03:36.628Z,1.70
2019-02-19T02:06:07.061Z,1.80
2019-02-19T02:08:37.318Z,1.80
2019-02-19T02:11:09.966Z,1.80
2019-02-19T02:13:39.599Z,1.90
2019-02-19T02:16:09.238Z,1.80
2019-02-19T02:18:38.854Z,1.80
2019-02-19T02:21:09.943Z,1.80
2019-02-19T02:23:40.269Z,1.80
2019-02-19T02:26:10.024Z,1.70
2019-02-19T02:28:39.653Z,1.70
2019-02-19T02:31:09.313Z,1.60
2019-02-19T02:33:38.994Z,1.60
2019-02-19T02:36:08.600Z,1.60
2019-02-19T02:38:38.220Z,1.70
2019-02-19T02:41:07.903Z,1.70
2019-02-19T02:43:37.859Z,1.70
2019-02-19T02:46:07.474Z,1.60
2019-02-19T02:48:37.162Z,1.50
2019-02-19T02:51:06.771Z,1.40
2019-02-19T02:53:36.979Z,1.30
2019-02-19T02:56:06.801Z,1.20
2019-02-19T02:58:36.795Z,1.10
2019-02-19T03:01:07.212Z,1.10
2019-02-19T03:03:36.809Z,1.00
2019-02-19T03:06:10.880Z,1.00
2019-02-19T03:08:40.494Z,0.90
2019-02-19T03:11:10.253Z,0.90
2019-02-19T03:13:39.970Z,0.90
2019-02-19T03:16:10.662Z,0.90
2019-02-19T03:18:40.365Z,0.80
2019-02-19T03:21:09.996Z,0.80
2019-02-19T03:23:40.228Z,0.80
2019-02-19T03:26:09.848Z,0.80
2019-02-19T03:28:39.463Z,0.80
2019-02-19T03:31:09.108Z,0.80
2019-02-19T03:33:38.723Z,0.80
2019-02-19T03:36:08.381Z,0.80
2019-02-19T03:38:38.026Z,0.80
2019-02-19T03:41:07.642Z,0.80
2019-02-19T03:43:38.423Z,0.70
2019-02-19T03:46:12.197Z,0.80
2019-02-19T03:48:37.966Z,0.80
2019-02-19T03:51:07.577Z,0.80
2019-02-19T03:53:37.184Z,0.80
2019-02-19T03:56:06.990Z,0.80
2019-02-19T03:58:36.717Z,0.90
2019-02-19T04:01:06.317Z,0.90
2019-02-19T04:03:35.962Z,0.90
2019-02-19T04:06:05.632Z,0.90
2019-02-19T04:08:35.270Z,0.80
2019-02-19T04:11:04.966Z,0.80
2019-02-19T04:13:39.100Z,0.70
2019-02-19T04:16:08.837Z,0.70
2019-02-19T04:18:38.758Z,0.70
2019-02-19T04:21:13.531Z,0.70
2019-02-19T04:23:43.214Z,0.70
2019-02-19T04:26:14.187Z,0.70
2019-02-19T04:28:43.826Z,0.70
2019-02-19T04:31:17.062Z,0.70
2019-02-19T04:33:46.732Z,0.70
2019-02-19T04:36:16.463Z,0.70
2019-02-19T04:38:46.113Z,0.60
2019-02-19T04:41:15.733Z,0.50
2019-02-19T04:43:45.439Z,0.50
2019-02-19T04:46:15.113Z,0.40
2019-02-19T04:48:44.781Z,0.40
2019-02-19T04:51:15.768Z,0.30
2019-02-19T04:53:45.398Z,0.30
2019-02-19T04:56:15.097Z,0.30
2019-02-19T04:58:44.754Z,0.30
2019-02-19T05:01:14.441Z,0.30
2019-02-19T05:03:44.157Z,0.30
2019-02-19T05:06:13.796Z,0.30
2019-02-19T05:08:44.644Z,0.20
2019-02-19T05:11:13.158Z,0.20
2019-02-19T05:13:44.170Z,0.10
2019-02-19T05:16:13.865Z,0.10
2019-02-19T05:18:43.513Z,0.00
2019-02-19T05:21:13.186Z,0.00
2019-02-19T05:23:42.825Z,0.00
2019-02-19T05:26:12.496Z,0.20
2019-02-19T05:28:42.163Z,0.10
2019-02-19T05:31:11.800Z,0.00
2019-02-19T05:33:41.605Z,0.00
2019-02-19T05:36:11.339Z,0.00
2019-02-19T05:38:41.222Z,0.00
2019-02-19T05:41:10.899Z,0.10
2019-02-19T05:43:40.533Z,0.10
2019-02-19T05:46:10.196Z,0.10
2019-02-19T05:48:39.822Z,0.20
2019-02-19T05:51:09.483Z,0.30
2019-02-19T05:53:39.157Z,0.40
2019-02-19T05:56:08.809Z,0.40
2019-02-19T05:58:38.470Z,0.30
2019-02-19T06:01:08.343Z,0.30
2019-02-19T06:03:39.265Z,0.30
2019-02-19T06:06:08.906Z,0.30
2019-02-19T06:08:38.958Z,0.40
2019-02-19T06:11:09.249Z,0.60
2019-02-19T06:13:38.874Z,0.70
2019-02-19T06:16:08.570Z,0.80
2019-02-19T06:18:38.211Z,0.90
2019-02-19T06:21:07.883Z,1.00
2019-02-19T06:23:38.378Z,1.00
2019-02-19T06:26:08.079Z,1.00
2019-02-19T06:28:37.765Z,1.10
2019-02-19T06:31:07.403Z,1.10
2019-02-19T06:33:37.089Z,1.10
2019-02-19T06:36:06.770Z,1.20
2019-02-19T06:38:36.996Z,1.20
2019-02-19T06:41:06.686Z,1.20
2019-02-19T06:43:36.303Z,1.20
2019-02-19T06:46:05.948Z,1.40
2019-02-19T06:48:35.617Z,1.50
2019-02-19T06:51:05.385Z,1.60
2019-02-19T06:53:34.994Z,1.70
2019-02-19T06:56:04.702Z,1.80
2019-02-19T06:58:35.479Z,1.90
2019-02-19T07:01:05.179Z,2.10
2019-02-19T07:03:38.592Z,2.30
2019-02-19T07:06:08.235Z,2.50
2019-02-19T07:08:37.893Z,2.60
2019-02-19T07:11:07.558Z,2.90
2019-02-19T07:13:38.528Z,3.00
2019-02-19T07:16:08.215Z,3.20
2019-02-19T07:18:37.825Z,3.40
2019-02-19T07:21:08.735Z,3.60
2019-02-19T07:23:38.351Z,3.90
2019-02-19T07:26:07.987Z,4.40
2019-02-19T07:28:38.829Z,4.90
2019-02-19T07:31:08.430Z,5.60
2019-02-19T07:33:38.078Z,6.30
2019-02-19T07:36:07.682Z,7.00
2019-02-19T07:38:37.379Z,7.70
2019-02-19T07:41:07.007Z,8.40
2019-02-19T07:43:36.613Z,9.20
2019-02-19T07:46:06.338Z,9.90
2019-02-19T07:48:35.969Z,10.80
2019-02-19T07:51:05.617Z,11.60
2019-02-19T07:53:36.402Z,12.40
2019-02-19T07:56:06.251Z,13.00
2019-02-19T07:58:35.915Z,13.50
2019-02-19T08:01:05.535Z,14.00
2019-02-19T08:03:37.632Z,14.50
2019-02-19T08:06:07.237Z,14.80
2019-02-19T08:08:36.901Z,15.10
2019-02-19T08:11:06.589Z,15.40
2019-02-19T08:13:36.206Z,15.80
2019-02-19T08:16:05.926Z,16.10
2019-02-19T08:18:35.574Z,16.40
2019-02-19T08:21:06.635Z,16.70
2019-02-19T08:23:36.265Z,17.00
2019-02-19T08:26:08.407Z,17.20
2019-02-19T08:28:38.053Z,17.30
2019-02-19T08:31:07.770Z,17.40
2019-02-19T08:33:37.430Z,17.50
2019-02-19T08:36:10.826Z,17.60
2019-02-19T08:38:40.457Z,17.60
2019-02-19T08:41:10.109Z,17.70
2019-02-19T08:43:39.753Z,17.90
2019-02-19T08:46:10.605Z,18.20
2019-02-19T08:48:40.267Z,18.70
2019-02-19T08:51:09.956Z,19.20
2019-02-19T08:53:39.615Z,19.40
2019-02-19T08:56:09.262Z,19.70
2019-02-19T08:58:38.927Z,20.00
2019-02-19T09:01:09.873Z,20.20
2019-02-19T09:03:39.512Z,20.70
2019-02-19T09:06:09.162Z,21.10
2019-02-19T09:08:39.457Z,21.30
2019-02-19T09:11:09.118Z,21.30
2019-02-19T09:13:38.798Z,21.30
2019-02-19T09:16:08.532Z,21.30
2019-02-19T09:18:38.162Z,21.30
2019-02-19T09:21:07.834Z,21.30
2019-02-19T09:23:37.507Z,21.30
2019-02-19T09:26:07.230Z,21.30
2019-02-19T09:28:38.269Z,21.50
2019-02-19T09:31:07.877Z,21.80
2019-02-19T09:33:37.564Z,22.30
2019-02-19T09:36:07.282Z,22.70
2019-02-19T09:38:39.498Z,23.30
2019-02-19T09:41:09.138Z,24.20
2019-02-19T09:43:38.789Z,24.90
2019-02-19T09:46:08.741Z,25.50
2019-02-19T09:48:39.666Z,25.90
2019-02-19T09:51:09.350Z,26.50
2019-02-19T09:53:40.234Z,27.20
2019-02-19T09:56:09.874Z,27.50
2019-02-19T09:58:39.542Z,27.30
2019-02-19T10:01:09.205Z,26.70
2019-02-19T10:03:39.998Z,25.80
2019-02-19T10:06:09.678Z,25.20
2019-02-19T10:08:39.375Z,24.70
2019-02-19T10:11:09.026Z,24.40
2019-02-19T10:13:38.853Z,24.30
2019-02-19T10:16:08.530Z,24.20
2019-02-19T10:18:38.175Z,24.00
2019-02-19T10:21:07.820Z,23.50
2019-02-19T10:23:37.478Z,23.20
2019-02-19T10:26:07.144Z,23.20
2019-02-19T10:28:36.801Z,23.10
2019-02-19T10:31:07.840Z,22.90
2019-02-19T10:33:37.625Z,22.80
2019-02-19T10:36:07.411Z,22.90
2019-02-19T10:38:37.071Z,23.10
2019-02-19T10:41:07.977Z,23.30
2019-02-19T10:43:38.919Z,23.40
2019-02-19T10:46:08.655Z,23.20
2019-02-19T10:48:40.797Z,23.10
2019-02-19T10:51:10.470Z,23.00
2019-02-19T10:53:40.137Z,23.10
2019-02-19T10:56:11.066Z,23.20
2019-02-19T10:58:40.727Z,23.30
2019-02-19T11:01:10.417Z,23.30
2019-02-19T11:03:46.686Z,23.50
2019-02-19T11:06:16.341Z,23.80
2019-02-19T11:08:45.989Z,24.20
2019-02-19T11:11:16.882Z,24.60
2019-02-19T11:13:46.529Z,25.20
2019-02-19T11:16:16.190Z,25.70
2019-02-19T11:18:45.850Z,25.80
2019-02-19T11:21:19.509Z,25.40
2019-02-19T11:23:46.488Z,24.70
2019-02-19T11:26:16.151Z,24.10
2019-02-19T11:28:45.851Z,23.90
2019-02-19T11:31:20.386Z,23.80
2019-02-19T11:33:52.547Z,23.40
2019-02-19T11:36:22.206Z,22.50
2019-02-19T11:38:51.870Z,21.70
2019-02-19T11:41:22.727Z,20.90
2019-02-19T11:43:52.424Z,20.50
2019-02-19T11:46:22.082Z,20.50
2019-02-19T11:48:51.790Z,20.50
2019-02-19T11:51:21.446Z,20.30
2019-02-19T11:53:51.133Z,19.90
2019-02-19T11:56:20.855Z,19.20
2019-02-19T11:58:50.513Z,18.50
2019-02-19T12:01:21.361Z,17.70
2019-02-19T12:03:51.047Z,17.10
2019-02-19T12:06:20.671Z,16.70
2019-02-19T12:08:50.332Z,16.40
2019-02-19T12:11:21.206Z,16.30
2019-02-19T12:13:50.864Z,16.20
2019-02-19T12:16:20.501Z,16.10
2019-02-19T12:18:51.358Z,15.80
2019-02-19T12:21:22.273Z,15.40
2019-02-19T12:23:51.924Z,15.00
2019-02-19T12:26:21.593Z,14.50
2019-02-19T12:28:51.385Z,14.10
2019-02-19T12:31:21.037Z,13.60
2019-02-19T12:33:51.742Z,13.00
2019-02-19T12:36:21.365Z,12.60
2019-02-19T12:38:51.235Z,12.30
2019-02-19T12:41:20.850Z,12.00
2019-02-19T12:43:52.942Z,11.70
2019-02-19T12:46:22.589Z,11.40
2019-02-19T12:48:54.617Z,11.20
2019-02-19T12:51:26.429Z,10.90
2019-02-19T12:53:51.499Z,10.70
2019-02-19T12:56:21.153Z,10.50
2019-02-19T12:58:50.814Z,10.30
2019-02-19T13:01:20.470Z,10.20
2019-02-19T13:03:50.094Z,10.00
2019-02-19T13:06:19.758Z,9.80
2019-02-19T13:08:53.835Z,9.60
2019-02-19T13:11:23.461Z,9.40
2019-02-19T13:13:53.096Z,9.30
2019-02-19T13:16:22.766Z,9.10
2019-02-19T13:18:52.374Z,9.00
2019-02-19T13:21:22.006Z,8.90
2019-02-19T13:23:51.690Z,8.90
2019-02-19T13:26:21.294Z,8.90
2019-02-19T13:28:50.958Z,8.90
2019-02-19T13:31:21.817Z,8.80
2019-02-19T13:33:51.414Z,8.80
2019-02-19T13:36:22.268Z,8.80
2019-02-19T13:38:53.209Z,8.80
2019-02-19T13:41:22.835Z,8.90
2019-02-19T13:43:53.759Z,8.80
2019-02-19T13:46:23.448Z,8.90
2019-02-19T13:48:53.066Z,8.90
2019-02-19T13:51:22.735Z,8.90
2019-02-19T13:53:57.634Z,8.80
2019-02-19T13:56:28.450Z,8.90
2019-02-19T13:58:58.078Z,9.00
2019-02-19T14:01:28.986Z,9.20
2019-02-19T14:03:58.609Z,9.40
2019-02-19T14:06:29.471Z,9.60
2019-02-19T14:09:00.371Z,9.80
2019-02-19T14:11:30.022Z,9.80
2019-02-19T14:14:05.890Z,9.90
2019-02-19T14:16:39.750Z,10.00
2019-02-19T14:19:21.219Z,10.10
2019-02-19T14:21:49.058Z,10.10
2019-02-19T14:24:24.269Z,10.00
2019-02-19T14:26:58.156Z,9.80
2019-02-19T14:31:39.145Z,9.70
2019-02-19T14:36:19.928Z,9.50
2019-02-19T14:38:54.717Z,9.20
2019-02-19T14:41:36.533Z,9.00
2019-02-19T14:44:11.493Z,9.00
2019-02-19T14:46:46.572Z,8.90
2019-02-19T14:49:34.049Z,8.70
2019-02-19T14:52:00.695Z,8.60
2019-02-19T14:54:34.577Z,8.50
2019-02-19T14:57:16.333Z,8.30
2019-02-19T14:59:51.366Z,8.20
2019-02-19T15:02:25.246Z,8.10
2019-02-19T15:05:00.347Z,8.00
2019-02-19T15:07:35.207Z,8.00
2019-02-19T15:10:11.142Z,8.00
2019-02-19T15:12:46.061Z,7.90
2019-02-19T15:15:21.137Z,7.80
2019-02-19T15:17:57.450Z,7.80
2019-02-19T15:20:36.442Z,7.80
2019-02-19T15:23:16.102Z,7.70
2019-02-19T15:25:52.703Z,7.70
2019-02-19T15:28:27.835Z,7.80
2019-02-19T15:31:02.926Z,7.90
2019-02-19T15:33:40.840Z,7.90
2019-02-19T15:38:18.271Z,7.90
2019-02-19T15:40:57.334Z,8.00
2019-02-19T15:43:31.409Z,7.90
2019-02-19T15:46:06.375Z,8.00
2019-02-19T15:49:11.666Z,8.00
2019-02-19T15:51:47.423Z,8.00
2019-02-19T15:54:26.530Z,8.00
2019-02-19T15:57:01.827Z,8.00
2019-02-19T15:59:46.709Z,8.00
2019-02-19T16:02:22.750Z,8.00
2019-02-19T16:04:59.530Z,8.00
2019-02-19T16:08:34.240Z,7.90
2019-02-19T16:11:10.012Z,7.90
2019-02-19T16:13:48.116Z,7.90
2019-02-19T16:16:43.221Z,7.80
2019-02-19T16:19:26.958Z,7.80
2019-02-19T16:22:05.953Z,7.80
2019-02-19T16:25:41.602Z,7.80
2019-02-19T16:28:17.430Z,7.80
2019-02-19T16:30:53.923Z,7.70
2019-02-19T16:35:34.810Z,7.70
2019-02-19T16:38:08.774Z,7.70
2019-02-19T16:40:58.680Z,7.60
2019-02-19T16:43:36.187Z,7.60
2019-02-19T16:46:11.446Z,7.60
2019-02-19T16:49:03.264Z,7.60
2019-02-19T16:51:50.406Z,7.70
2019-02-19T16:54:30.814Z,7.70
2019-02-19T16:57:07.681Z,7.70
2019-02-19T16:59:51.435Z,7.60
2019-02-19T17:03:05.549Z,7.60
2019-02-19T17:05:42.480Z,7.60
2019-02-19T17:08:17.578Z,7.70
2019-02-19T17:11:54.280Z,7.70
2019-02-19T17:15:30.081Z,7.70
2019-02-19T17:18:06.932Z,7.70
2019-02-19T17:20:41.264Z,7.70
2019-02-19T17:23:25.031Z,7.70
2019-02-19T17:26:01.069Z,7.70
2019-02-19T17:29:35.095Z,7.70
2019-02-19T17:32:13.477Z,7.60
2019-02-19T17:34:52.707Z,7.60
2019-02-19T17:38:01.797Z,7.50
2019-02-19T17:40:41.434Z,7.50
2019-02-19T17:43:17.692Z,7.40
2019-02-19T17:45:51.818Z,7.30
2019-02-19T17:48:30.179Z,7.20
2019-02-19T17:51:06.454Z,7.10
2019-02-19T17:55:49.524Z,7.00
2019-02-19T17:58:24.546Z,6.90
2019-02-19T18:02:01.731Z,6.80
2019-02-19T18:04:33.670Z,6.80
2019-02-19T18:07:08.519Z,6.80
2019-02-19T18:09:45.979Z,6.80
2019-02-19T18:12:19.806Z,6.80
2019-02-19T18:14:56.752Z,6.90
2019-02-19T18:17:33.636Z,6.90
2019-02-19T18:20:03.321Z,6.90
2019-02-19T18:22:33.019Z,7.00
2019-02-19T18:25:02.672Z,7.00
2019-02-19T18:27:33.658Z,7.00
2019-02-19T18:30:03.452Z,7.00
2019-02-19T18:32:40.953Z,6.90
2019-02-19T18:35:10.594Z,6.90
2019-02-19T18:37:40.255Z,6.80
2019-02-19T18:40:11.194Z,6.70
2019-02-19T18:42:43.177Z,6.60
2019-02-19T18:45:13.523Z,6.50
2019-02-19T18:47:43.182Z,6.50
2019-02-19T18:50:17.522Z,6.40
2019-02-19T18:52:48.139Z,6.40
2019-02-19T18:55:21.711Z,6.30
2019-02-19T18:57:55.178Z,6.20
2019-02-19T19:00:26.530Z,6.20
2019-02-19T19:03:00.798Z,6.20
2019-02-19T19:05:33.696Z,6.10
2019-02-19T19:08:07.929Z,6.20
2019-02-19T19:10:40.271Z,6.20
2019-02-19T19:13:14.057Z,6.10
2019-02-19T19:15:48.871Z,6.00
2019-02-19T19:18:19.471Z,6.00
2019-02-19T19:20:51.171Z,5.90
2019-02-19T19:23:22.510Z,5.90
2019-02-19T19:25:53.178Z,5.90
2019-02-19T19:28:24.634Z,5.90
2019-02-19T19:30:55.850Z,6.00
2019-02-19T19:33:27.950Z,6.00
2019-02-19T19:35:58.810Z,6.00
2019-02-19T19:38:28.758Z,6.10
2019-02-19T19:41:00.219Z,6.10
2019-02-19T19:43:30.623Z,6.10
2019-02-19T19:46:01.504Z,6.20
2019-02-19T19:48:33.923Z,6.20
2019-02-19T19:51:04.916Z,6.30
2019-02-19T19:53:34.662Z,6.30
2019-02-19T19:56:04.447Z,6.40
2019-02-19T19:58:35.393Z,6.40
2019-02-19T20:01:05.014Z,6.50
2019-02-19T20:03:34.682Z,6.50
2019-02-19T20:06:04.348Z,6.60
2019-02-19T20:08:33.957Z,6.60
2019-02-19T20:11:04.367Z,6.60
2019-02-19T20:13:33.994Z,6.60
2019-02-19T20:16:03.614Z,6.60
2019-02-19T20:18:39.065Z,6.60
2019-02-19T20:21:07.614Z,6.60
2019-02-19T20:23:38.506Z,6.60
2019-02-19T20:26:08.201Z,6.60
2019-02-19T20:28:38.126Z,6.60
2019-02-19T20:31:07.766Z,6.50
2019-02-19T20:33:37.709Z,6.60
2019-02-19T20:36:07.442Z,6.50
2019-02-19T20:38:37.211Z,6.50
2019-02-19T20:41:06.820Z,6.50
2019-02-19T20:43:36.519Z,6.50
2019-02-19T20:46:06.291Z,6.50
2019-02-19T20:48:36.022Z,6.50
2019-02-19T20:51:07.011Z,6.50
2019-02-19T20:53:37.236Z,6.50
2019-02-19T20:56:07.360Z,6.50
2019-02-19T20:58:41.023Z,6.50
2019-02-19T21:01:10.737Z,6.50
2019-02-19T21:03:44.074Z,6.50
2019-02-19T21:06:11.925Z,6.50
2019-02-19T21:08:41.586Z,6.50
2019-02-19T21:11:12.598Z,6.50
2019-02-19T21:13:42.743Z,6.50
2019-02-19T21:16:13.030Z,6.50
2019-02-19T21:18:42.681Z,6.50
2019-02-19T21:21:13.369Z,6.50
2019-02-19T21:23:44.146Z,6.50
2019-02-19T21:26:16.226Z,6.60
2019-02-19T21:28:47.053Z,6.60
2019-02-19T21:31:19.478Z,6.60
2019-02-19T21:33:49.174Z,6.60
2019-02-19T21:36:18.947Z,6.60
2019-02-19T21:38:48.587Z,6.60
2019-02-19T21:41:19.613Z,6.70
2019-02-19T21:43:49.254Z,6.70
2019-02-19T21:46:20.069Z,6.70
2019-02-19T21:48:50.945Z,6.70
2019-02-19T21:51:21.273Z,6.70
2019-02-19T21:53:50.963Z,6.70
2019-02-19T21:56:22.878Z,6.70
2019-02-19T21:58:52.654Z,6.70
2019-02-19T22:01:22.339Z,6.70
2019-02-19T22:03:52.124Z,6.70
2019-02-19T22:06:23.262Z,6.70
2019-02-19T22:08:52.906Z,6.70
2019-02-19T22:11:26.427Z,6.70
2019-02-19T22:13:58.300Z,6.80
2019-02-19T22:16:28.723Z,6.80
2019-02-19T22:18:58.383Z,6.80
2019-02-19T22:21:33.389Z,6.80
2019-02-19T22:24:04.062Z,6.80
2019-02-19T22:26:36.390Z,6.80
2019-02-19T22:29:07.535Z,6.80
2019-02-19T22:31:38.098Z,6.70
2019-02-19T22:34:09.566Z,6.70
2019-02-19T22:36:39.355Z,6.70
2019-02-19T22:39:09.146Z,6.70
2019-02-19T22:41:38.833Z,6.70
2019-02-19T22:44:09.821Z,6.60
2019-02-19T22:46:40.145Z,6.60
2019-02-19T22:49:10.099Z,6.60
2019-02-19T22:51:39.765Z,6.60
2019-02-19T22:54:13.662Z,6.60
2019-02-19T22:56:45.018Z,6.60
2019-02-19T22:59:14.798Z,6.60
2019-02-19T23:01:49.756Z,6.60
2019-02-19T23:04:21.588Z,6.60
2019-02-19T23:06:51.388Z,6.60
2019-02-19T23:09:21.243Z,6.60
2019-02-19T23:11:52.852Z,6.60
2019-02-19T23:14:22.642Z,6.50
2019-02-19T23:16:52.437Z,6.60
2019-02-19T23:19:22.151Z,6.60
2019-02-19T23:21:52.408Z,6.60
2019-02-19T23:24:22.197Z,6.50
2019-02-19T23:26:51.933Z,6.50
2019-02-19T23:29:22.953Z,6.50
2019-02-19T23:31:52.567Z,6.50
2019-02-19T23:34:22.164Z,6.50
2019-02-19T23:36:59.350Z,6.50
2019-02-19T23:39:28.959Z,6.50
2019-02-19T23:41:58.566Z,6.50
2019-02-19T23:44:29.501Z,6.50
2019-02-19T23:46:59.123Z,6.40
2019-02-19T23:49:28.730Z,6.40
2019-02-19T23:51:58.397Z,6.40
2019-02-19T23:54:27.993Z,6.40
2019-02-19T23:56:57.649Z,6.40
2019-02-19T23:59:28.566Z,6.40
